Terminal Aerodrome Forecast
Issued by NWS Atlanta, GA

Home | Current Version | Previous Version | Text Only | Print | Product List | Glossary On
Versions: 1 2 3 4 5 6 7 8 9 10 11 12 13 14 15 16 17 18 19 20 21 22 23 24 25 26
000
FTUS42 KFFC 200523
TAFMCN
TAF
KMCN 200523Z 2006/2106 18008KT P6SM SCT045 OVC080
     FM200800 17008KT 6SM -SHRA BR SCT012 BKN028 OVC040
      TEMPO 2008/2010 2SM +SHRA SCT007 BKN012 OVC030
     FM201100 21004KT 5SM BR OVC007
     FM201400 22008KT P6SM SCT010 BKN025
     FM202000 22007KT P6SM SCT030 BKN250=

USA.gov is the U.S. government's official web portal to all federal, state and local government web resources and services.